CheckWX is a tool to help pilots better visualize weather data.  It is not intended as a substitute for an official pre-flight weather briefing.

13:58:18 UTC

KFLO TAF
Florence Regional Airport
Florence, South Carolina, USA
KFLO 201120Z 2012/2112 21005KT P6SM SCT200 FM201700 21007KT P6SM SCT050 BKN200 FM202000 21007KT P6SM VCTS SCT050CB BKN200 FM210000 20005KT P6SM SCT050 BKN200

Aug-20@
12:00 UTC

Aug-20 @ 12:00 UTC

Aug-20@
17:00 UTC

Aug-20 @ 17:00 UTC

KFLO 201120Z 2012/2112 21005KT P6SM SCT200
Wind
  • 210° at 5 KTS
Cloud Levels
  • Scattered at 20,000' AGL

Aug-20@
17:00 UTC

Aug-20 @ 17:00 UTC

Aug-20@
20:00 UTC

Aug-20 @ 20:00 UTC

FM201700 21007KT P6SM SCT050 BKN200

From

From Standard forecast or significant change

Wind
  • 210° at 7 KTS
Cloud Levels
  • Scattered at 5,000' AGL
  • Broken at 20,000' AGL

Aug-20@
20:00 UTC

Aug-20 @ 20:00 UTC

Aug-21@
00:00 UTC

Aug-21 @ 00:00 UTC

FM202000 21007KT P6SM VCTS SCT050CB BKN200

From

From Standard forecast or significant change

Wind
  • 210° at 7 KTS
Conditions
Area Thunderstorm
Cloud Levels
  • Scattered at 5,000' AGL
  • Broken at 20,000' AGL

Aug-21@
00:00 UTC

Aug-21 @ 00:00 UTC

Aug-21@
12:00 UTC

Aug-21 @ 12:00 UTC

FM210000 20005KT P6SM SCT050 BKN200

From

From Standard forecast or significant change

Wind
  • 200° at 5 KTS
Cloud Levels
  • Scattered at 5,000' AGL
  • Broken at 20,000' AGL